Norwegian Sky — C6PZ8 — position and weather

sailwx.info

Track history (hours):
 
Tides and Currents Weather Stations Pressure Air Temp Water Temp Dewpoint Dewpoint Depression Visibility Wind Speed Wind Dir Waves Ship Positions

Norwegian Sky (Norway)

Operator: Norwegian Cruise Line

Last reported at 2017-Jul-24 23:59 UTC. Time now 2017-Jul-27 02:35 UTC.
Position N 25°09' W 080°03'.

Length 259 m; draft 8 m.

Type: Ship. MMSI: 308865000.

Date/timePositionNaut miles runAvg speedWind from/ knotsBaromVisibWave heightAir tempDewpointWater temp
2017-Jul-24 23:59N 25°09' W 080°03'918.3
2017-Jul-24 23:30N 25°17' W 079°59'917.2
2017-Jul-24 23:00N 25°26' W 079°57'918.3
2017-Jul-24 22:30N 25°35' W 079°57'917.4
2017-Jul-24 22:00N 25°43' W 080°01'611.6
2017-Jul-24 21:31N 25°46' W 080°06'3 6.6
2017-Jul-24 21:00N 25°46' W 080°10'0 0.0
2017-Jul-24 20:30N 25°46' W 080°10'0 0.0
2017-Jul-24 20:00N 25°46' W 080°10'0 0.0
2017-Jul-24 19:30N 25°46' W 080°10'0 0.0
2017-Jul-24 19:00N 25°46' W 080°10'0 0.0
2017-Jul-24 18:28N 25°46' W 080°10'0 0.0
2017-Jul-24 17:55N 25°46' W 080°10'0 0.0
2017-Jul-24 17:22N 25°46' W 080°10'0 0.0
2017-Jul-24 17:01N 25°46' W 080°10'0 0.0
2017-Jul-24 16:30N 25°46' W 080°10'0 0.0
2017-Jul-24 16:00N 25°46' W 080°10'0 0.0
2017-Jul-24 12:59N 25°46' W 080°10'0 0.0
2017-Jul-24 12:29N 25°46' W 080°10'0 0.0
2017-Jul-24 11:58N 25°46' W 080°10'0 0.0
2017-Jul-24 11:28N 25°46' W 080°10'0 0.0
2017-Jul-24 10:52N 25°46' W 080°10'0 0.0
2017-Jul-24 10:31N 25°46' W 080°10'1 1.4
2017-Jul-24 10:01N 25°47' W 080°11'2 3.0
2017-Jul-24 09:30N 25°46' W 080°09'510.7
2017-Jul-24 09:01N 25°47' W 080°03'4 8.1
2017-Jul-24 08:30N 25°48' W 079°59'4 8.6
2017-Jul-24 08:01N 25°50' W 079°55'4 8.7
2017-Jul-24 07:30N 25°52' W 079°50'4 8.4
2017-Jul-24 07:00N 25°54' W 079°46'4 8.5
2017-Jul-24 06:30N 25°56' W 079°42'4 8.6
2017-Jul-24 06:01N 25°58' W 079°38'4 8.5
2017-Jul-24 05:30N 25°60' W 079°34'4 8.6
2017-Jul-24 05:01N 26°02' W 079°29'4 8.6
2017-Jul-24 04:31N 26°04' W 079°25'4 8.5
2017-Jul-24 04:00N 26°06' W 079°21'4 8.4
2017-Jul-24 03:31N 26°08' W 079°17'4 8.4
2017-Jul-24 03:01N 26°10' W 079°13'4 8.4
2017-Jul-24 02:30N 26°11' W 079°08'29 0.6
2017-Jul-22 03:00N 26°06' W 078°36'816.6
2017-Jul-22 02:31N 26°09' W 078°45'1116.5
2017-Jul-22 01:50N 26°12' W 078°57'515.7
2017-Jul-22 01:31N 26°13' W 079°03'815.7
2017-Jul-22 01:01N 26°10' W 079°11'1016.6
2017-Jul-22 00:23N 26°06' W 079°21'617.0
2017-Jul-22 00:01N 26°03' W 079°28'917.2
2017-Jul-21 23:31N 25°59' W 079°36'816.8
2017-Jul-21 23:01N 25°55' W 079°44'816.7
2017-Jul-21 22:30N 25°51' W 079°53'816.1
2017-Jul-21 22:00N 25°48' W 080°01'612.3
2017-Jul-21 21:31N 25°45' W 080°07'3 5.6
2017-Jul-21 21:00N 25°46' W 080°10'0 0.0
2017-Jul-21 20:29N 25°46' W 080°10'0 0.0
2017-Jul-21 19:59N 25°46' W 080°10'0 0.0
2017-Jul-21 19:26N 25°46' W 080°10'0 0.0
2017-Jul-21 18:59N 25°46' W 080°10'0 0.0
2017-Jul-21 18:29N 25°46' W 080°10'0 0.0
2017-Jul-21 17:58N 25°46' W 080°10'0 0.0
2017-Jul-21 17:25N 25°46' W 080°10'0 0.0
2017-Jul-21 16:58N 25°46' W 080°10'0 0.0
2017-Jul-21 16:28N 25°46' W 080°10'0 0.0
2017-Jul-21 15:58N 25°46' W 080°10'0 0.0
2017-Jul-21 15:30N 25°46' W 080°10'0 0.0
2017-Jul-21 15:00N 25°46' W 080°10'0 0.0
2017-Jul-21 14:27N 25°46' W 080°10'0 0.0
2017-Jul-21 14:00N 25°46' W 080°10'0 0.0
2017-Jul-21 13:26N 25°46' W 080°10'0 0.0
2017-Jul-21 12:59N 25°46' W 080°10'0 0.0
2017-Jul-21 12:29N 25°46' W 080°10'0 0.0
2017-Jul-21 11:59N 25°46' W 080°10'0 0.0
2017-Jul-21 11:29N 25°46' W 080°10'0 0.0
2017-Jul-21 10:58N 25°46' W 080°10'0 0.0
2017-Jul-21 10:30N 25°46' W 080°10'1 2.3
2017-Jul-21 10:00N 25°47' W 080°11'3 5.2
2017-Jul-21 09:30N 25°46' W 080°08'611.1
2017-Jul-21 09:00N 25°47' W 080°02'510.6
2017-Jul-21 08:30N 25°43' W 079°58'714.3
2017-Jul-21 08:00N 25°36' W 079°57'714.9
2017-Jul-21 07:30N 25°28' W 079°56'917.5
2017-Jul-21 07:00N 25°19' W 079°56'  
2017-Jul-18 07:23N 25°16' W 079°60'614.8
2017-Jul-18 07:01N 25°21' W 079°58'815.1
2017-Jul-18 06:30N 25°29' W 079°57'816.1
2017-Jul-18 06:01N 25°37' W 079°57'815.9
2017-Jul-18 05:31N 25°44' W 080°00'611.5
2017-Jul-18 05:00N 25°45' W 080°07'3 6.1
2017-Jul-18 04:30N 25°46' W 080°10'0 0.0
2017-Jul-18 04:00N 25°46' W 080°10'0 0.0
2017-Jul-18 03:29N 25°46' W 080°10'0 0.0
2017-Jul-18 02:56N 25°46' W 080°10'0 0.0
2017-Jul-18 02:29N 25°46' W 080°10'0 0.0
2017-Jul-18 01:59N 25°46' W 080°10'0 0.0
2017-Jul-18 01:28N 25°46' W 080°10'0 0.0
2017-Jul-18 00:58N 25°46' W 080°10'0 0.0
2017-Jul-18 00:28N 25°46' W 080°10'0 0.0
2017-Jul-17 23:58N 25°46' W 080°10'0 0.0
2017-Jul-17 23:28N 25°46' W 080°10'0 0.0
2017-Jul-17 23:00N 25°46' W 080°10'0 0.0
2017-Jul-17 22:30N 25°46' W 080°10'0 0.0
2017-Jul-17 22:00N 25°46' W 080°10'0 0.0
2017-Jul-17 21:30N 25°46' W 080°10'0 0.0
2017-Jul-17 21:00N 25°46' W 080°10'0 0.0
2017-Jul-17 20:29N 25°46' W 080°10'0 0.0
2017-Jul-17 19:59N 25°46' W 080°10'0 0.0
2017-Jul-17 19:29N 25°46' W 080°10'0 0.0
2017-Jul-17 18:56N 25°46' W 080°10'0 0.0
2017-Jul-17 18:28N 25°46' W 080°10'0 0.0
2017-Jul-17 17:58N 25°46' W 080°10'0 0.0
2017-Jul-17 17:28N 25°46' W 080°10'0 0.0
2017-Jul-17 16:52N 25°46' W 080°10'0 0.0
2017-Jul-17 16:21N 25°46' W 080°10'0 0.0
2017-Jul-17 16:00N 25°46' W 080°10'0 0.0
2017-Jul-17 15:30N 25°46' W 080°10'0 0.0
2017-Jul-17 15:00N 25°46' W 080°10'0 0.0
2017-Jul-17 14:30N 25°46' W 080°10'0 0.0
2017-Jul-17 14:00N 25°46' W 080°10'0 0.0
2017-Jul-17 13:24N 25°46' W 080°10'0 0.0
2017-Jul-17 13:00N 25°46' W 080°10'0 0.0
2017-Jul-17 12:29N 25°46' W 080°10'0 0.0
2017-Jul-17 11:59N 25°46' W 080°10'0 0.0
2017-Jul-17 11:28N 25°46' W 080°10'0 0.0
2017-Jul-17 10:58N 25°46' W 080°10'0 0.0
2017-Jul-17 10:25N 25°46' W 080°10'1 2.0
2017-Jul-17 10:00N 25°47' W 080°11'2 3.1
2017-Jul-17 09:30N 25°46' W 080°09'510.6
2017-Jul-17 09:00N 25°47' W 080°03'4 8.5
2017-Jul-17 08:30N 25°48' W 079°59'5 9.2
2017-Jul-17 08:00N 25°50' W 079°54'4 8.7
2017-Jul-17 07:30N 25°52' W 079°50'4 8.6
2017-Jul-17 07:00N 25°54' W 079°46'4 8.5
2017-Jul-17 06:30N 25°56' W 079°41'4 8.6
2017-Jul-17 06:00N 25°58' W 079°37'4 7.5
2017-Jul-17 05:30N 25°60' W 079°34'4 8.5
2017-Jul-17 05:00N 26°02' W 079°29'4 8.4
2017-Jul-17 04:30N 26°04' W 079°25'4 8.6
2017-Jul-17 04:00N 26°06' W 079°21'4 8.7
2017-Jul-17 03:30N 26°08' W 079°17'4 8.6
2017-Jul-17 03:00N 26°10' W 079°12'20 0.4
2017-Jul-15 00:15N 26°01' W 079°32'415.4
2017-Jul-15 00:00N 25°59' W 079°36'  
Track history (hours):
 
Tides and Currents Weather Stations Pressure Air Temp Water Temp Dewpoint Dewpoint Depression Visibility Wind Speed Wind Dir Waves Ship Positions

Norwegian Sky (Norway)

Operator: Norwegian Cruise Line

Last reported at 2017-Jul-24 23:59 UTC. Time now 2017-Jul-27 02:35 UTC.
Position N 25°09' W 080°03'.

Length 259 m; draft 8 m.

Type: Ship. MMSI: 308865000.

Date/timePositionNaut miles runAvg speedWind from/ knotsBaromVisibWave heightAir tempDewpointWater temp
2017-Jul-24 23:59N 25°09' W 080°03'918.3
2017-Jul-24 23:30N 25°17' W 079°59'917.2
2017-Jul-24 23:00N 25°26' W 079°57'918.3
2017-Jul-24 22:30N 25°35' W 079°57'917.4
2017-Jul-24 22:00N 25°43' W 080°01'611.6
2017-Jul-24 21:31N 25°46' W 080°06'3 6.6
2017-Jul-24 21:00N 25°46' W 080°10'0 0.0
2017-Jul-24 20:30N 25°46' W 080°10'0 0.0
2017-Jul-24 20:00N 25°46' W 080°10'0 0.0
2017-Jul-24 19:30N 25°46' W 080°10'0 0.0
2017-Jul-24 19:00N 25°46' W 080°10'0 0.0
2017-Jul-24 18:28N 25°46' W 080°10'0 0.0
2017-Jul-24 17:55N 25°46' W 080°10'0 0.0
2017-Jul-24 17:22N 25°46' W 080°10'0 0.0
2017-Jul-24 17:01N 25°46' W 080°10'0 0.0
2017-Jul-24 16:30N 25°46' W 080°10'0 0.0
2017-Jul-24 16:00N 25°46' W 080°10'0 0.0
2017-Jul-24 12:59N 25°46' W 080°10'0 0.0
2017-Jul-24 12:29N 25°46' W 080°10'0 0.0
2017-Jul-24 11:58N 25°46' W 080°10'0 0.0
2017-Jul-24 11:28N 25°46' W 080°10'0 0.0
2017-Jul-24 10:52N 25°46' W 080°10'0 0.0
2017-Jul-24 10:31N 25°46' W 080°10'1 1.4
2017-Jul-24 10:01N 25°47' W 080°11'2 3.0
2017-Jul-24 09:30N 25°46' W 080°09'510.7
2017-Jul-24 09:01N 25°47' W 080°03'4 8.1
2017-Jul-24 08:30N 25°48' W 079°59'4 8.6
2017-Jul-24 08:01N 25°50' W 079°55'4 8.7
2017-Jul-24 07:30N 25°52' W 079°50'4 8.4
2017-Jul-24 07:00N 25°54' W 079°46'4 8.5
2017-Jul-24 06:30N 25°56' W 079°42'4 8.6
2017-Jul-24 06:01N 25°58' W 079°38'4 8.5
2017-Jul-24 05:30N 25°60' W 079°34'4 8.6
2017-Jul-24 05:01N 26°02' W 079°29'4 8.6
2017-Jul-24 04:31N 26°04' W 079°25'4 8.5
2017-Jul-24 04:00N 26°06' W 079°21'4 8.4
2017-Jul-24 03:31N 26°08' W 079°17'4 8.4
2017-Jul-24 03:01N 26°10' W 079°13'4 8.4
2017-Jul-24 02:30N 26°11' W 079°08'29 0.6
2017-Jul-22 03:00N 26°06' W 078°36'816.6
2017-Jul-22 02:31N 26°09' W 078°45'1116.5
2017-Jul-22 01:50N 26°12' W 078°57'515.7
2017-Jul-22 01:31N 26°13' W 079°03'815.7
2017-Jul-22 01:01N 26°10' W 079°11'1016.6
2017-Jul-22 00:23N 26°06' W 079°21'617.0
2017-Jul-22 00:01N 26°03' W 079°28'917.2
2017-Jul-21 23:31N 25°59' W 079°36'816.8
2017-Jul-21 23:01N 25°55' W 079°44'816.7
2017-Jul-21 22:30N 25°51' W 079°53'816.1
2017-Jul-21 22:00N 25°48' W 080°01'612.3
2017-Jul-21 21:31N 25°45' W 080°07'3 5.6
2017-Jul-21 21:00N 25°46' W 080°10'0 0.0
2017-Jul-21 20:29N 25°46' W 080°10'0 0.0
2017-Jul-21 19:59N 25°46' W 080°10'0 0.0
2017-Jul-21 19:26N 25°46' W 080°10'0 0.0
2017-Jul-21 18:59N 25°46' W 080°10'0 0.0
2017-Jul-21 18:29N 25°46' W 080°10'0 0.0
2017-Jul-21 17:58N 25°46' W 080°10'0 0.0
2017-Jul-21 17:25N 25°46' W 080°10'0 0.0
2017-Jul-21 16:58N 25°46' W 080°10'0 0.0
2017-Jul-21 16:28N 25°46' W 080°10'0 0.0
2017-Jul-21 15:58N 25°46' W 080°10'0 0.0
2017-Jul-21 15:30N 25°46' W 080°10'0 0.0
2017-Jul-21 15:00N 25°46' W 080°10'0 0.0
2017-Jul-21 14:27N 25°46' W 080°10'0 0.0
2017-Jul-21 14:00N 25°46' W 080°10'0 0.0
2017-Jul-21 13:26N 25°46' W 080°10'0 0.0
2017-Jul-21 12:59N 25°46' W 080°10'0 0.0
2017-Jul-21 12:29N 25°46' W 080°10'0 0.0
2017-Jul-21 11:59N 25°46' W 080°10'0 0.0
2017-Jul-21 11:29N 25°46' W 080°10'0 0.0
2017-Jul-21 10:58N 25°46' W 080°10'0 0.0
2017-Jul-21 10:30N 25°46' W 080°10'1 2.3
2017-Jul-21 10:00N 25°47' W 080°11'3 5.2
2017-Jul-21 09:30N 25°46' W 080°08'611.1
2017-Jul-21 09:00N 25°47' W 080°02'510.6
2017-Jul-21 08:30N 25°43' W 079°58'714.3
2017-Jul-21 08:00N 25°36' W 079°57'714.9
2017-Jul-21 07:30N 25°28' W 079°56'917.5
2017-Jul-21 07:00N 25°19' W 079°56'  
2017-Jul-18 07:23N 25°16' W 079°60'614.8
2017-Jul-18 07:01N 25°21' W 079°58'815.1
2017-Jul-18 06:30N 25°29' W 079°57'816.1
2017-Jul-18 06:01N 25°37' W 079°57'815.9
2017-Jul-18 05:31N 25°44' W 080°00'611.5
2017-Jul-18 05:00N 25°45' W 080°07'3 6.1
2017-Jul-18 04:30N 25°46' W 080°10'0 0.0
2017-Jul-18 04:00N 25°46' W 080°10'0 0.0
2017-Jul-18 03:29N 25°46' W 080°10'0 0.0
2017-Jul-18 02:56N 25°46' W 080°10'0 0.0
2017-Jul-18 02:29N 25°46' W 080°10'0 0.0
2017-Jul-18 01:59N 25°46' W 080°10'0 0.0
2017-Jul-18 01:28N 25°46' W 080°10'0 0.0
2017-Jul-18 00:58N 25°46' W 080°10'0 0.0
2017-Jul-18 00:28N 25°46' W 080°10'0 0.0
2017-Jul-17 23:58N 25°46' W 080°10'0 0.0
2017-Jul-17 23:28N 25°46' W 080°10'0 0.0
2017-Jul-17 23:00N 25°46' W 080°10'0 0.0
2017-Jul-17 22:30N 25°46' W 080°10'0 0.0
2017-Jul-17 22:00N 25°46' W 080°10'0 0.0
2017-Jul-17 21:30N 25°46' W 080°10'0 0.0
2017-Jul-17 21:00N 25°46' W 080°10'0 0.0
2017-Jul-17 20:29N 25°46' W 080°10'0 0.0
2017-Jul-17 19:59N 25°46' W 080°10'0 0.0
2017-Jul-17 19:29N 25°46' W 080°10'0 0.0
2017-Jul-17 18:56N 25°46' W 080°10'0 0.0
2017-Jul-17 18:28N 25°46' W 080°10'0 0.0
2017-Jul-17 17:58N 25°46' W 080°10'0 0.0
2017-Jul-17 17:28N 25°46' W 080°10'0 0.0
2017-Jul-17 16:52N 25°46' W 080°10'0 0.0
2017-Jul-17 16:21N 25°46' W 080°10'0 0.0
2017-Jul-17 16:00N 25°46' W 080°10'0 0.0
2017-Jul-17 15:30N 25°46' W 080°10'0 0.0
2017-Jul-17 15:00N 25°46' W 080°10'0 0.0
2017-Jul-17 14:30N 25°46' W 080°10'0 0.0
2017-Jul-17 14:00N 25°46' W 080°10'0 0.0
2017-Jul-17 13:24N 25°46' W 080°10'0 0.0
2017-Jul-17 13:00N 25°46' W 080°10'0 0.0
2017-Jul-17 12:29N 25°46' W 080°10'0 0.0
2017-Jul-17 11:59N 25°46' W 080°10'0 0.0
2017-Jul-17 11:28N 25°46' W 080°10'0 0.0
2017-Jul-17 10:58N 25°46' W 080°10'0 0.0
2017-Jul-17 10:25N 25°46' W 080°10'1 2.0
2017-Jul-17 10:00N 25°47' W 080°11'2 3.1
2017-Jul-17 09:30N 25°46' W 080°09'510.6
2017-Jul-17 09:00N 25°47' W 080°03'4 8.5
2017-Jul-17 08:30N 25°48' W 079°59'5 9.2
2017-Jul-17 08:00N 25°50' W 079°54'4 8.7
2017-Jul-17 07:30N 25°52' W 079°50'4 8.6
2017-Jul-17 07:00N 25°54' W 079°46'4 8.5
2017-Jul-17 06:30N 25°56' W 079°41'4 8.6
2017-Jul-17 06:00N 25°58' W 079°37'4 7.5
2017-Jul-17 05:30N 25°60' W 079°34'4 8.5
2017-Jul-17 05:00N 26°02' W 079°29'4 8.4
2017-Jul-17 04:30N 26°04' W 079°25'4 8.6
2017-Jul-17 04:00N 26°06' W 079°21'4 8.7
2017-Jul-17 03:30N 26°08' W 079°17'4 8.6
2017-Jul-17 03:00N 26°10' W 079°12'20 0.4
2017-Jul-15 00:15N 26°01' W 079°32'415.4
2017-Jul-15 00:00N 25°59' W 079°36'  

Dump ship's entire track history